Newark, New Jersey
Current Conditions -  °F | °C
As of 6:51 AM on Sunday 25 Jan 2015 (Local Time) from KEWR Reporting Station
Broken Clouds Broken Clouds  
Wind Chill: 24°   Ceiling: 5500
Heat Index: 33°   Visibility: 10mi
Dew Point: 27°   Wind: 12mph
Humidity: 78%   Direction: 220°SW
Pressure: 29.67"   Gusts: NA
Location:  40.73°N, 74.17°W
Report Text: KEWR 251151Z 22010KT 10SM BKN055 01/M03 A2967 RMK AO2 SLP046 4/003 70004 T00061028 10017 20000 53023 $
Loading
Personal Weather Stations






























Interactive Weather Map New forecast layout! Learn more

10-Day Weather Forecast

Advertisements
Track Severe Weather on mobile